Time;durP1;ratioP1;P1;durP2;ratioP2;P2;SDS_P1;SDS_P2;PMS_P1;PMS_P2;Temp;Humidity;BMP_temperature;BMP_pressure;BME280_temperature;BME280_humidity;BME280_pressure;Samples;Min_cycle;Max_cycle;Signal;HPM_P1;HPM_P2
2021/06/24 00:01:06;;;;;;;2.33;2.05;;;;;;;22.22;67.47;100522.16;;;;-61
2021/06/24 00:04:06;;;;;;;2.37;2.18;;;;;;;22.21;67.54;100522.67;;;;-61
2021/06/24 00:07:06;;;;;;;2.66;2.18;;;;;;;22.20;67.48;100522.33;;;;-61
2021/06/24 00:10:06;;;;;;;2.28;2.09;;;;;;;22.20;67.56;100521.67;;;;-61
2021/06/24 00:13:06;;;;;;;2.79;2.07;;;;;;;22.20;67.48;100517.68;;;;-61
2021/06/24 00:16:06;;;;;;;2.31;2.00;;;;;;;22.19;67.56;100515.73;;;;-61
2021/06/24 00:19:06;;;;;;;2.39;2.19;;;;;;;22.19;67.59;100518.59;;;;-60
2021/06/24 00:22:06;;;;;;;3.05;2.11;;;;;;;22.18;67.51;100524.62;;;;-60
2021/06/24 00:25:06;;;;;;;2.29;2.07;;;;;;;22.18;67.54;100530.98;;;;-61
2021/06/24 00:28:06;;;;;;;2.11;2.01;;;;;;;22.17;67.51;100530.43;;;;-61
2021/06/24 00:31:06;;;;;;;2.38;2.19;;;;;;;22.17;67.57;100536.16;;;;-61
2021/06/24 00:34:06;;;;;;;2.30;2.07;;;;;;;22.16;67.59;100536.81;;;;-61
2021/06/24 00:37:06;;;;;;;2.29;2.09;;;;;;;22.16;67.57;100535.84;;;;-60
2021/06/24 00:40:06;;;;;;;2.22;2.05;;;;;;;22.16;67.57;100537.03;;;;-60
2021/06/24 00:43:06;;;;;;;2.86;2.14;;;;;;;22.16;67.57;100535.00;;;;-61
2021/06/24 00:46:06;;;;;;;2.30;2.10;;;;;;;22.15;67.55;100522.03;;;;-61
2021/06/24 00:49:06;;;;;;;2.79;2.12;;;;;;;22.14;67.53;100522.95;;;;-56
2021/06/24 00:52:06;;;;;;;2.32;2.10;;;;;;;22.14;67.60;100519.03;;;;-56
2021/06/24 00:55:06;;;;;;;2.29;2.09;;;;;;;22.14;67.59;100525.70;;;;-56
2021/06/24 00:58:06;;;;;;;2.16;2.01;;;;;;;22.13;67.61;100518.29;;;;-56
2021/06/24 01:01:06;;;;;;;2.20;2.00;;;;;;;22.14;67.56;100517.13;;;;-56
2021/06/24 01:04:06;;;;;;;2.35;2.15;;;;;;;22.13;67.60;100516.58;;;;-56
2021/06/24 01:07:06;;;;;;;2.89;2.10;;;;;;;22.12;67.58;100515.94;;;;-56
2021/06/24 01:10:06;;;;;;;2.25;2.05;;;;;;;22.13;67.61;100514.87;;;;-56
2021/06/24 01:13:06;;;;;;;2.30;2.13;;;;;;;22.12;67.55;100521.63;;;;-56
2021/06/24 01:16:06;;;;;;;2.21;2.06;;;;;;;22.11;67.57;100518.05;;;;-56
2021/06/24 01:19:06;;;;;;;2.10;2.00;;;;;;;22.11;67.63;100520.98;;;;-56
2021/06/24 01:22:06;;;;;;;2.40;2.20;;;;;;;22.11;67.58;100521.32;;;;-56
2021/06/24 01:25:06;;;;;;;2.29;2.10;;;;;;;22.10;67.54;100524.81;;;;-56
2021/06/24 01:28:07;;;;;;;2.34;2.11;;;;;;;22.10;67.58;100529.98;;;;-56
2021/06/24 01:31:06;;;;;;;2.34;2.14;;;;;;;22.09;67.62;100528.09;;;;-56
2021/06/24 01:34:06;;;;;;;2.08;1.98;;;;;;;22.09;67.58;100527.28;;;;-55
2021/06/24 01:37:06;;;;;;;2.29;2.09;;;;;;;22.09;67.60;100531.28;;;;-56
2021/06/24 01:40:06;;;;;;;2.39;2.01;;;;;;;22.09;67.54;100529.81;;;;-56
2021/06/24 01:43:06;;;;;;;2.59;2.39;;;;;;;22.08;67.56;100525.02;;;;-55
2021/06/24 01:46:06;;;;;;;2.49;2.09;;;;;;;22.08;67.55;100529.75;;;;-56
2021/06/24 01:49:06;;;;;;;2.23;2.13;;;;;;;22.07;67.62;100522.30;;;;-56
2021/06/24 01:52:06;;;;;;;2.23;2.03;;;;;;;22.08;67.58;100518.37;;;;-56
2021/06/24 01:55:06;;;;;;;2.31;2.11;;;;;;;22.07;67.59;100518.80;;;;-56
2021/06/24 01:58:06;;;;;;;2.23;2.01;;;;;;;22.06;67.56;100521.58;;;;-56
2021/06/24 02:01:06;;;;;;;2.24;2.04;;;;;;;22.07;67.46;100521.50;;;;-56
2021/06/24 02:04:06;;;;;;;2.47;2.12;;;;;;;22.06;67.55;100523.39;;;;-57
2021/06/24 02:07:06;;;;;;;2.17;2.06;;;;;;;22.06;67.52;100521.32;;;;-56
2021/06/24 02:10:06;;;;;;;2.35;2.10;;;;;;;22.05;67.49;100517.81;;;;-55
2021/06/24 02:13:06;;;;;;;2.31;2.11;;;;;;;22.05;67.54;100522.55;;;;-56
2021/06/24 02:16:06;;;;;;;2.53;2.00;;;;;;;22.05;67.44;100524.36;;;;-56
2021/06/24 02:19:06;;;;;;;2.11;2.01;;;;;;;22.04;67.48;100527.14;;;;-56
2021/06/24 02:22:06;;;;;;;2.13;1.93;;;;;;;22.04;67.49;100528.78;;;;-56
2021/06/24 02:25:06;;;;;;;2.11;2.01;;;;;;;22.04;67.42;100530.58;;;;-56
2021/06/24 02:28:06;;;;;;;2.05;1.93;;;;;;;22.03;67.42;100532.69;;;;-55
2021/06/24 02:31:06;;;;;;;2.00;1.89;;;;;;;22.03;67.44;100532.84;;;;-56
2021/06/24 02:34:06;;;;;;;2.18;2.03;;;;;;;22.03;67.42;100527.71;;;;-56
2021/06/24 02:37:06;;;;;;;2.15;2.04;;;;;;;22.03;67.37;100517.92;;;;-56
2021/06/24 02:40:06;;;;;;;2.81;2.09;;;;;;;22.02;67.37;100510.18;;;;-56
2021/06/24 02:43:06;;;;;;;2.10;1.94;;;;;;;22.02;67.38;100511.23;;;;-56
2021/06/24 02:46:06;;;;;;;2.23;2.03;;;;;;;22.00;67.37;100514.17;;;;-56
2021/06/24 02:49:06;;;;;;;2.45;2.13;;;;;;;22.01;67.38;100520.12;;;;-56
2021/06/24 02:52:06;;;;;;;2.31;2.00;;;;;;;22.00;67.41;100520.78;;;;-56
2021/06/24 02:55:06;;;;;;;2.22;2.05;;;;;;;22.01;67.32;100514.58;;;;-56
2021/06/24 02:58:06;;;;;;;2.47;2.17;;;;;;;21.99;67.42;100514.48;;;;-56
2021/06/24 03:01:08;;;;;;;2.06;1.90;;;;;;;22.00;67.41;100506.09;;;;-56
2021/06/24 03:04:06;;;;;;;2.12;2.00;;;;;;;21.99;67.30;100508.77;;;;-56
2021/06/24 03:07:06;;;;;;;2.10;1.96;;;;;;;22.00;67.36;100510.02;;;;-56
2021/06/24 03:10:06;;;;;;;2.16;2.06;;;;;;;21.99;67.39;100515.47;;;;-56
2021/06/24 03:13:06;;;;;;;2.12;2.00;;;;;;;21.99;67.40;100513.92;;;;-55
2021/06/24 03:16:06;;;;;;;2.35;1.99;;;;;;;21.99;67.34;100509.02;;;;-56
2021/06/24 03:19:06;;;;;;;3.01;1.99;;;;;;;21.98;67.32;100506.27;;;;-56
2021/06/24 03:22:06;;;;;;;2.19;2.09;;;;;;;21.99;67.33;100506.50;;;;-56
2021/06/24 03:25:06;;;;;;;2.27;2.07;;;;;;;21.98;67.38;100501.20;;;;-56
2021/06/24 03:28:06;;;;;;;3.68;2.15;;;;;;;21.97;67.34;100498.91;;;;-55
2021/06/24 03:31:06;;;;;;;1.98;1.86;;;;;;;21.97;67.37;100500.70;;;;-55
2021/06/24 03:34:06;;;;;;;2.02;1.90;;;;;;;21.97;67.41;100503.88;;;;-56
2021/06/24 03:37:06;;;;;;;1.90;1.80;;;;;;;21.97;67.29;100504.71;;;;-56
2021/06/24 03:40:06;;;;;;;2.06;1.95;;;;;;;21.97;67.39;100503.48;;;;-55
2021/06/24 03:43:06;;;;;;;2.31;2.11;;;;;;;21.97;67.35;100499.98;;;;-57
2021/06/24 03:46:06;;;;;;;2.06;1.89;;;;;;;21.97;67.37;100496.31;;;;-57
2021/06/24 03:49:06;;;;;;;2.10;1.99;;;;;;;21.96;67.42;100493.88;;;;-57
2021/06/24 03:52:06;;;;;;;2.13;2.00;;;;;;;21.96;67.30;100491.43;;;;-57
2021/06/24 03:55:06;;;;;;;2.27;1.87;;;;;;;21.96;67.35;100492.48;;;;-57
2021/06/24 03:58:06;;;;;;;2.07;1.90;;;;;;;21.96;67.43;100492.48;;;;-57
2021/06/24 04:01:06;;;;;;;2.11;1.93;;;;;;;21.95;67.38;100490.76;;;;-57
2021/06/24 04:04:06;;;;;;;2.05;1.95;;;;;;;21.95;67.43;100494.34;;;;-57
2021/06/24 04:07:06;;;;;;;2.02;1.92;;;;;;;21.94;67.40;100491.83;;;;-56
2021/06/24 04:10:06;;;;;;;1.99;1.89;;;;;;;21.94;67.39;100495.35;;;;-54
2021/06/24 04:13:06;;;;;;;2.42;2.03;;;;;;;21.94;67.36;100498.95;;;;-56
2021/06/24 04:16:07;;;;;;;1.99;1.89;;;;;;;21.93;67.44;100497.45;;;;-56
2021/06/24 04:19:06;;;;;;;2.28;2.10;;;;;;;21.93;67.43;100496.23;;;;-56
2021/06/24 04:22:06;;;;;;;1.97;1.87;;;;;;;21.93;67.47;100497.62;;;;-56
2021/06/24 04:25:06;;;;;;;1.93;1.83;;;;;;;21.93;67.39;100495.67;;;;-54
2021/06/24 04:28:06;;;;;;;1.90;1.80;;;;;;;21.93;67.41;100497.95;;;;-59
2021/06/24 04:31:06;;;;;;;2.05;1.87;;;;;;;21.93;67.38;100494.85;;;;-58
2021/06/24 04:34:07;;;;;;;1.92;1.82;;;;;;;21.92;67.38;100490.88;;;;-59
2021/06/24 04:37:06;;;;;;;2.05;1.80;;;;;;;21.91;67.42;100485.13;;;;-58
2021/06/24 04:40:06;;;;;;;2.08;1.98;;;;;;;21.91;67.40;100481.63;;;;-58
2021/06/24 04:43:06;;;;;;;2.05;1.95;;;;;;;21.91;67.39;100480.23;;;;-58
2021/06/24 04:46:06;;;;;;;2.01;1.91;;;;;;;21.92;67.38;100480.17;;;;-58
2021/06/24 04:49:06;;;;;;;2.15;1.79;;;;;;;21.91;67.37;100479.34;;;;-57
2021/06/24 04:52:06;;;;;;;1.99;1.89;;;;;;;21.90;67.41;100475.93;;;;-58
2021/06/24 04:55:06;;;;;;;2.11;1.91;;;;;;;21.90;67.39;100473.08;;;;-57
2021/06/24 04:58:06;;;;;;;2.01;1.87;;;;;;;21.90;67.42;100475.94;;;;-57
2021/06/24 05:01:06;;;;;;;1.94;1.84;;;;;;;21.90;67.35;100468.43;;;;-57
2021/06/24 05:04:06;;;;;;;1.88;1.78;;;;;;;21.90;67.28;100467.37;;;;-57
2021/06/24 05:07:09;;;;;;;2.05;1.85;;;;;;;21.89;67.29;100462.47;;;;-58
2021/06/24 05:10:06;;;;;;;3.81;3.44;;;;;;;21.89;69.47;100460.34;;;;-54
2021/06/24 05:13:06;;;;;;;4.23;3.77;;;;;;;21.80;70.52;100455.73;;;;-52
2021/06/24 05:16:06;;;;;;;6.45;4.38;;;;;;;21.75;70.82;100456.98;;;;-55
2021/06/24 05:19:06;;;;;;;5.81;4.64;;;;;;;21.69;71.55;100453.00;;;;-58
2021/06/24 05:22:06;;;;;;;5.57;4.94;;;;;;;21.59;71.99;100453.42;;;;-60
2021/06/24 05:25:06;;;;;;;9.28;5.31;;;;;;;21.52;72.22;100450.61;;;;-54
2021/06/24 05:28:06;;;;;;;8.33;5.94;;;;;;;21.48;72.23;100452.81;;;;-55
2021/06/24 05:31:06;;;;;;;8.77;5.99;;;;;;;21.44;72.47;100451.53;;;;-54
2021/06/24 05:34:06;;;;;;;9.38;6.47;;;;;;;21.40;72.69;100444.41;;;;-54
2021/06/24 05:37:06;;;;;;;7.40;6.69;;;;;;;21.38;73.31;100446.69;;;;-55
2021/06/24 05:40:06;;;;;;;7.53;6.51;;;;;;;21.35;73.30;100450.92;;;;-55
2021/06/24 05:43:06;;;;;;;7.52;6.68;;;;;;;21.30;73.59;100450.20;;;;-54
2021/06/24 05:46:06;;;;;;;7.02;6.32;;;;;;;21.23;74.48;100456.58;;;;-54
2021/06/24 05:49:06;;;;;;;7.67;6.89;;;;;;;21.26;74.83;100457.87;;;;-56
2021/06/24 05:52:06;;;;;;;10.01;7.69;;;;;;;21.27;74.40;100458.75;;;;-53
2021/06/24 05:55:06;;;;;;;9.98;7.68;;;;;;;21.18;75.22;100458.84;;;;-55
2021/06/24 05:58:06;;;;;;;10.54;8.32;;;;;;;21.25;75.08;100454.59;;;;-55
2021/06/24 06:01:06;;;;;;;8.93;8.03;;;;;;;21.23;75.10;100457.70;;;;-55
2021/06/24 06:04:06;;;;;;;9.73;8.55;;;;;;;21.24;75.42;100456.16;;;;-55
2021/06/24 06:07:06;;;;;;;10.09;8.37;;;;;;;21.22;75.68;100460.32;;;;-54
2021/06/24 06:10:06;;;;;;;9.91;8.88;;;;;;;21.22;75.87;100464.14;;;;-55
2021/06/24 06:13:06;;;;;;;10.95;9.82;;;;;;;21.23;75.97;100459.08;;;;-54
2021/06/24 06:16:06;;;;;;;10.88;9.79;;;;;;;21.23;75.98;100460.14;;;;-55
2021/06/24 06:19:06;;;;;;;10.73;9.67;;;;;;;21.21;76.44;100460.91;;;;-54
2021/06/24 06:22:06;;;;;;;11.15;10.03;;;;;;;21.22;76.77;100466.52;;;;-54
2021/06/24 06:25:06;;;;;;;11.79;10.02;;;;;;;21.15;77.12;100469.38;;;;-54
2021/06/24 06:28:06;;;;;;;11.79;10.60;;;;;;;21.20;76.92;100466.66;;;;-55
2021/06/24 06:31:06;;;;;;;12.37;11.05;;;;;;;21.20;76.99;100460.80;;;;-55
2021/06/24 06:34:06;;;;;;;16.18;11.82;;;;;;;21.20;77.26;100463.48;;;;-54
2021/06/24 06:37:06;;;;;;;14.14;12.64;;;;;;;21.18;76.69;100467.31;;;;-55
2021/06/24 06:40:06;;;;;;;13.39;11.99;;;;;;;21.14;77.22;100473.69;;;;-55
2021/06/24 06:43:06;;;;;;;12.79;11.55;;;;;;;21.09;77.64;100477.36;;;;-54
2021/06/24 06:46:06;;;;;;;13.86;12.20;;;;;;;21.13;77.80;100481.11;;;;-55
2021/06/24 06:49:06;;;;;;;15.07;13.49;;;;;;;21.13;77.64;100481.92;;;;-55
2021/06/24 06:52:06;;;;;;;13.95;12.47;;;;;;;21.12;77.47;100485.50;;;;-54
2021/06/24 06:55:06;;;;;;;13.78;12.35;;;;;;;21.07;77.56;100489.66;;;;-55
2021/06/24 06:58:06;;;;;;;13.19;10.84;;;;;;;21.11;77.03;100495.45;;;;-55
2021/06/24 07:01:06;;;;;;;11.68;10.57;;;;;;;21.15;76.69;100497.91;;;;-54
2021/06/24 07:04:06;;;;;;;11.53;10.03;;;;;;;21.17;76.49;100502.88;;;;-54
2021/06/24 07:07:06;;;;;;;11.32;10.12;;;;;;;21.17;76.57;100504.17;;;;-55
2021/06/24 07:10:06;;;;;;;11.77;9.62;;;;;;;21.19;76.24;100509.47;;;;-55
2021/06/24 07:13:06;;;;;;;10.58;9.51;;;;;;;21.18;76.49;100511.82;;;;-54
2021/06/24 07:16:06;;;;;;;11.33;10.05;;;;;;;21.20;77.39;100514.35;;;;-58
2021/06/24 07:19:06;;;;;;;10.24;9.21;;;;;;;21.20;77.54;100513.61;;;;-58
2021/06/24 07:22:06;;;;;;;10.87;9.02;;;;;;;21.15;77.44;100515.41;;;;-58
2021/06/24 07:25:06;;;;;;;9.85;8.33;;;;;;;21.12;77.40;100514.02;;;;-58
2021/06/24 07:28:07;;;;;;;9.17;8.19;;;;;;;21.12;77.80;100522.66;;;;-58
2021/06/24 07:31:06;;;;;;;9.77;8.22;;;;;;;21.13;77.74;100518.28;;;;-58
2021/06/24 07:34:06;;;;;;;10.07;9.01;;;;;;;21.10;78.24;100516.05;;;;-57
2021/06/24 07:37:06;;;;;;;12.02;9.67;;;;;;;21.13;78.44;100510.12;;;;-58
2021/06/24 07:40:06;;;;;;;10.61;9.53;;;;;;;21.11;78.98;100507.35;;;;-58
2021/06/24 07:43:06;;;;;;;22.09;9.97;;;;;;;21.14;79.01;100506.92;;;;-51
2021/06/24 07:46:06;;;;;;;10.27;8.58;;;;;;;21.20;77.74;100508.56;;;;-51
2021/06/24 07:49:06;;;;;;;10.33;7.85;;;;;;;21.25;77.60;100504.02;;;;-51
2021/06/24 07:52:06;;;;;;;12.21;7.97;;;;;;;21.30;77.30;100499.44;;;;-50
2021/06/24 07:55:07;;;;;;;10.21;7.75;;;;;;;21.34;76.85;100486.47;;;;-53
2021/06/24 07:58:06;;;;;;;10.02;7.11;;;;;;;21.38;76.68;100491.04;;;;-52
2021/06/24 08:01:06;;;;;;;8.25;6.93;;;;;;;21.41;76.25;100496.23;;;;-51
2021/06/24 08:04:06;;;;;;;7.29;6.59;;;;;;;21.45;76.11;100493.01;;;;-54
2021/06/24 08:07:07;;;;;;;8.53;6.35;;;;;;;21.48;75.84;100493.09;;;;-52
2021/06/24 08:10:06;;;;;;;7.67;6.54;;;;;;;21.51;75.68;100496.42;;;;-54
2021/06/24 08:13:06;;;;;;;6.72;6.06;;;;;;;21.54;75.46;100501.00;;;;-53
2021/06/24 08:16:06;;;;;;;7.67;5.82;;;;;;;21.57;75.31;100498.37;;;;-53
2021/06/24 08:19:06;;;;;;;6.73;5.78;;;;;;;21.59;75.17;100497.07;;;;-52
2021/06/24 08:22:06;;;;;;;11.53;5.97;;;;;;;21.61;75.12;100487.61;;;;-52
2021/06/24 08:25:06;;;;;;;6.34;5.76;;;;;;;21.63;74.90;100487.61;;;;-53
2021/06/24 08:28:06;;;;;;;6.59;5.60;;;;;;;21.64;74.85;100493.31;;;;-50
2021/06/24 08:31:07;;;;;;;5.82;5.27;;;;;;;21.67;74.93;100496.98;;;;-52
2021/06/24 08:34:06;;;;;;;6.27;5.31;;;;;;;21.67;74.26;100499.82;;;;-52
2021/06/24 08:37:06;;;;;;;5.99;5.40;;;;;;;21.67;74.31;100504.72;;;;-52
2021/06/24 08:40:06;;;;;;;5.57;5.07;;;;;;;21.69;74.47;100508.22;;;;-50
2021/06/24 08:43:06;;;;;;;6.36;5.37;;;;;;;21.70;74.21;100512.45;;;;-50
2021/06/24 08:46:06;;;;;;;6.40;4.74;;;;;;;21.70;74.09;100514.31;;;;-50
2021/06/24 08:49:06;;;;;;;6.89;5.18;;;;;;;21.71;74.06;100522.58;;;;-55
2021/06/24 08:52:06;;;;;;;5.68;4.89;;;;;;;21.73;74.00;100527.64;;;;-51
2021/06/24 08:55:06;;;;;;;5.53;4.91;;;;;;;21.74;73.98;100526.23;;;;-56
2021/06/24 08:58:06;;;;;;;6.14;5.11;;;;;;;21.76;73.86;100531.04;;;;-53
2021/06/24 09:01:06;;;;;;;5.16;4.67;;;;;;;21.77;73.84;100531.38;;;;-55
2021/06/24 09:04:06;;;;;;;5.43;4.81;;;;;;;21.79;73.75;100531.27;;;;-53
2021/06/24 09:07:06;;;;;;;5.35;4.84;;;;;;;21.79;73.72;100529.41;;;;-58
2021/06/24 09:10:06;;;;;;;5.59;5.09;;;;;;;21.80;73.68;100529.23;;;;-58
2021/06/24 09:13:06;;;;;;;5.59;5.01;;;;;;;21.82;73.57;100529.80;;;;-51
2021/06/24 09:16:07;;;;;;;6.33;4.95;;;;;;;21.83;73.50;100529.00;;;;-59
2021/06/24 09:19:06;;;;;;;5.20;4.70;;;;;;;21.84;73.36;100526.30;;;;-55
2021/06/24 09:22:07;;;;;;;6.03;5.24;;;;;;;21.85;73.32;100527.66;;;;-51
2021/06/24 09:25:06;;;;;;;5.94;4.67;;;;;;;21.85;73.27;100526.71;;;;-52
2021/06/24 09:28:06;;;;;;;5.28;4.78;;;;;;;21.88;73.23;100529.88;;;;-51
2021/06/24 09:31:06;;;;;;;5.74;4.67;;;;;;;21.88;73.11;100526.44;;;;-52
2021/06/24 09:34:07;;;;;;;6.04;4.71;;;;;;;21.90;73.12;100525.53;;;;-51
2021/06/24 09:37:06;;;;;;;7.87;4.71;;;;;;;21.91;73.07;100527.09;;;;-51
2021/06/24 09:40:06;;;;;;;5.77;4.62;;;;;;;21.91;73.01;100529.45;;;;-51
2021/06/24 09:43:06;;;;;;;5.65;4.77;;;;;;;21.93;73.01;100531.73;;;;-51
2021/06/24 09:46:08;;;;;;;9.32;4.69;;;;;;;21.93;72.91;100530.51;;;;-51
2021/06/24 09:49:07;;;;;;;5.56;4.50;;;;;;;21.94;73.01;100524.31;;;;-49
2021/06/24 09:52:06;;;;;;;5.39;4.69;;;;;;;21.94;72.87;100525.94;;;;-49
2021/06/24 09:55:06;;;;;;;5.07;4.28;;;;;;;21.95;72.70;100526.42;;;;-50
2021/06/24 09:58:06;;;;;;;5.94;4.42;;;;;;;21.95;72.74;100525.84;;;;-51
2021/06/24 10:01:06;;;;;;;7.55;4.51;;;;;;;21.96;72.69;100521.45;;;;-48
2021/06/24 10:04:06;;;;;;;4.93;4.44;;;;;;;21.97;72.66;100517.85;;;;-52
2021/06/24 10:07:08;;;;;;;5.29;4.37;;;;;;;21.97;72.50;100518.24;;;;-51
2021/06/24 10:10:07;;;;;;;5.01;4.47;;;;;;;21.99;72.51;100516.70;;;;-51
2021/06/24 10:13:06;;;;;;;6.11;4.41;;;;;;;22.00;72.45;100520.30;;;;-51
2021/06/24 10:16:06;;;;;;;4.26;3.87;;;;;;;22.00;72.53;100517.11;;;;-56
2021/06/24 10:19:06;;;;;;;4.59;4.19;;;;;;;22.02;72.37;100512.52;;;;-50
2021/06/24 10:22:06;;;;;;;4.69;4.29;;;;;;;22.02;72.30;100504.70;;;;-53
2021/06/24 10:25:06;;;;;;;4.93;4.25;;;;;;;22.02;72.41;100501.36;;;;-51
2021/06/24 10:28:06;;;;;;;4.81;4.28;;;;;;;22.03;72.41;100503.23;;;;-50
2021/06/24 10:31:06;;;;;;;4.65;4.25;;;;;;;22.03;72.36;100502.25;;;;-54
2021/06/24 10:34:06;;;;;;;4.60;4.18;;;;;;;22.03;72.17;100503.30;;;;-53
2021/06/24 10:37:06;;;;;;;4.77;4.37;;;;;;;22.04;72.23;100501.91;;;;-52
2021/06/24 10:40:06;;;;;;;5.51;4.31;;;;;;;22.04;72.17;100502.58;;;;-58
2021/06/24 10:43:06;;;;;;;5.40;3.98;;;;;;;22.04;72.02;100501.77;;;;-54
2021/06/24 10:46:06;;;;;;;4.53;4.13;;;;;;;22.05;71.97;100494.41;;;;-59
2021/06/24 10:49:06;;;;;;;4.99;4.13;;;;;;;22.04;71.73;100496.35;;;;-51
2021/06/24 10:52:06;;;;;;;7.21;4.33;;;;;;;22.05;72.00;100498.89;;;;-55
2021/06/24 10:55:06;;;;;;;4.64;4.24;;;;;;;22.05;72.00;100494.89;;;;-55
2021/06/24 10:58:06;;;;;;;5.17;4.31;;;;;;;22.07;71.84;100492.77;;;;-58
2021/06/24 11:01:06;;;;;;;5.37;4.15;;;;;;;22.07;72.00;100490.16;;;;-57
2021/06/24 11:04:06;;;;;;;7.87;4.21;;;;;;;22.05;71.85;100489.74;;;;-59
2021/06/24 11:07:06;;;;;;;4.40;4.00;;;;;;;22.05;71.81;100486.23;;;;-55
2021/06/24 11:10:06;;;;;;;5.40;4.06;;;;;;;22.04;71.79;100484.37;;;;-55
2021/06/24 11:13:06;;;;;;;5.79;4.13;;;;;;;22.04;71.76;100487.70;;;;-59
2021/06/24 11:16:06;;;;;;;5.07;3.85;;;;;;;22.04;71.70;100490.31;;;;-59
2021/06/24 11:19:06;;;;;;;5.39;4.23;;;;;;;22.04;71.64;100494.56;;;;-59
2021/06/24 11:22:06;;;;;;;5.48;3.77;;;;;;;22.03;71.57;100490.25;;;;-54
2021/06/24 11:25:08;;;;;;;4.17;3.87;;;;;;;22.03;71.59;100483.72;;;;-59
2021/06/24 11:28:06;;;;;;;5.19;4.03;;;;;;;22.03;71.48;100479.89;;;;-54
2021/06/24 11:31:07;;;;;;;5.31;3.70;;;;;;;22.02;71.46;100478.08;;;;-54
2021/06/24 11:34:12;;;;;;;4.59;3.97;;;;;;;22.02;71.49;100483.30;;;;-58
2021/06/24 11:37:06;;;;;;;5.00;4.03;;;;;;;22.02;71.40;100477.29;;;;-58
2021/06/24 11:40:06;;;;;;;4.24;3.86;;;;;;;22.02;71.39;100474.00;;;;-58
2021/06/24 11:43:06;;;;;;;4.55;3.83;;;;;;;22.01;71.34;100470.17;;;;-58
2021/06/24 11:46:06;;;;;;;4.41;3.82;;;;;;;22.01;71.33;100471.73;;;;-59
2021/06/24 11:49:15;;;;;;;4.15;3.77;;;;;;;22.01;71.22;100467.97;;;;-55
2021/06/24 12:01:31;;;;;;;4.57;3.75;;;;;;;22.00;71.06;100461.22;;;;-57
2021/06/24 12:04:06;;;;;;;4.01;3.71;;;;;;;21.99;70.99;100459.48;;;;-57
2021/06/24 12:07:08;;;;;;;4.11;3.77;;;;;;;21.99;71.04;100462.19;;;;-57
2021/06/24 12:10:06;;;;;;;3.88;3.58;;;;;;;21.99;71.03;100460.80;;;;-57
2021/06/24 12:13:06;;;;;;;4.37;3.97;;;;;;;21.99;71.00;100456.23;;;;-57
2021/06/24 12:16:06;;;;;;;4.03;3.64;;;;;;;21.99;71.00;100451.42;;;;-57
2021/06/24 12:19:06;;;;;;;3.95;3.63;;;;;;;21.99;70.93;100449.22;;;;-57
2021/06/24 12:22:06;;;;;;;5.68;3.91;;;;;;;21.98;70.99;100454.44;;;;-57
2021/06/24 12:25:06;;;;;;;4.39;3.79;;;;;;;21.99;70.99;100456.64;;;;-57
2021/06/24 12:28:06;;;;;;;4.02;3.71;;;;;;;21.98;70.97;100457.63;;;;-57
2021/06/24 12:31:06;;;;;;;3.95;3.61;;;;;;;21.98;70.88;100449.55;;;;-55
2021/06/24 12:34:06;;;;;;;3.80;3.50;;;;;;;21.98;70.93;100440.67;;;;-57
2021/06/24 12:37:06;;;;;;;5.01;3.55;;;;;;;21.99;70.92;100442.67;;;;-58
2021/06/24 12:40:06;;;;;;;3.65;3.35;;;;;;;22.00;70.96;100444.48;;;;-59
2021/06/24 12:43:06;;;;;;;3.89;3.54;;;;;;;22.00;70.98;100446.44;;;;-58
2021/06/24 12:46:06;;;;;;;7.85;3.45;;;;;;;22.02;71.13;100447.40;;;;-57
2021/06/24 12:49:06;;;;;;;4.99;3.96;;;;;;;22.03;71.12;100437.03;;;;-62
2021/06/24 12:52:08;;;;;;;4.18;3.78;;;;;;;22.05;71.11;100422.92;;;;-61
2021/06/24 12:55:06;;;;;;;4.11;3.61;;;;;;;22.05;71.12;100423.80;;;;-58
2021/06/24 12:58:06;;;;;;;4.03;3.65;;;;;;;22.06;71.17;100445.20;;;;-54
2021/06/24 13:01:12;;;;;;;5.87;3.86;;;;;;;22.08;71.12;100458.91;;;;-51
2021/06/24 13:04:06;;;;;;;4.18;3.81;;;;;;;22.08;71.13;100460.54;;;;-58
2021/06/24 13:07:06;;;;;;;5.95;3.64;;;;;;;22.09;71.07;100463.45;;;;-56
2021/06/24 13:10:06;;;;;;;4.61;3.79;;;;;;;22.10;71.04;100463.13;;;;-44
2021/06/24 13:13:06;;;;;;;4.71;3.69;;;;;;;22.12;70.98;100456.08;;;;-52
2021/06/24 13:16:06;;;;;;;6.62;3.63;;;;;;;22.12;71.14;100449.89;;;;-59
2021/06/24 13:19:06;;;;;;;5.45;3.47;;;;;;;22.13;71.08;100462.45;;;;-59
2021/06/24 13:22:06;;;;;;;4.93;3.45;;;;;;;22.13;71.02;100459.77;;;;-52
2021/06/24 13:25:06;;;;;;;5.01;3.83;;;;;;;22.14;71.07;100451.02;;;;-52
2021/06/24 13:28:06;;;;;;;4.73;3.61;;;;;;;22.15;71.09;100448.25;;;;-51
2021/06/24 13:31:06;;;;;;;4.11;3.65;;;;;;;22.15;71.05;100437.96;;;;-51
2021/06/24 13:34:06;;;;;;;8.49;3.85;;;;;;;22.16;70.96;100437.86;;;;-56
2021/06/24 13:37:06;;;;;;;4.49;3.58;;;;;;;22.16;71.01;100444.47;;;;-50
2021/06/24 13:40:06;;;;;;;3.70;3.37;;;;;;;22.17;70.96;100449.79;;;;-50
2021/06/24 13:43:06;;;;;;;4.13;3.73;;;;;;;22.16;70.94;100460.73;;;;-58
2021/06/24 13:46:06;;;;;;;3.84;3.47;;;;;;;22.17;70.87;100465.78;;;;-60
2021/06/24 13:49:06;;;;;;;3.79;3.38;;;;;;;22.17;70.93;100467.17;;;;-58
2021/06/24 13:52:06;;;;;;;4.41;3.49;;;;;;;22.17;70.87;100476.55;;;;-58
2021/06/24 13:55:06;;;;;;;4.74;3.47;;;;;;;22.18;70.82;100481.95;;;;-54
2021/06/24 13:58:06;;;;;;;4.61;3.40;;;;;;;22.19;70.94;100486.52;;;;-59
2021/06/24 14:01:06;;;;;;;3.93;3.32;;;;;;;22.19;70.83;100490.42;;;;-59
2021/06/24 14:04:06;;;;;;;5.70;3.41;;;;;;;22.20;70.85;100493.84;;;;-54
2021/06/24 14:07:06;;;;;;;6.73;3.36;;;;;;;22.19;70.87;100495.81;;;;-56
2021/06/24 14:10:06;;;;;;;7.11;3.26;;;;;;;22.20;70.73;100491.72;;;;-59
2021/06/24 14:13:06;;;;;;;7.93;3.47;;;;;;;22.19;70.92;100483.41;;;;-53
2021/06/24 14:16:06;;;;;;;5.29;3.41;;;;;;;22.19;70.89;100479.00;;;;-55
2021/06/24 14:19:06;;;;;;;5.46;3.31;;;;;;;22.20;70.83;100484.63;;;;-57
2021/06/24 14:22:06;;;;;;;6.83;3.52;;;;;;;22.20;70.86;100490.59;;;;-52
2021/06/24 14:25:06;;;;;;;6.54;3.73;;;;;;;22.20;70.81;100495.66;;;;-56
2021/06/24 14:28:06;;;;;;;5.61;3.41;;;;;;;22.20;70.82;100503.17;;;;-56
2021/06/24 14:31:06;;;;;;;4.25;3.30;;;;;;;22.21;70.65;100494.83;;;;-58
2021/06/24 14:34:06;;;;;;;6.27;3.30;;;;;;;22.21;70.81;100498.42;;;;-51
2021/06/24 14:37:06;;;;;;;4.09;3.10;;;;;;;22.20;70.80;100492.55;;;;-60
2021/06/24 14:40:06;;;;;;;6.82;3.49;;;;;;;22.21;70.84;100485.85;;;;-60
2021/06/24 14:43:06;;;;;;;8.83;3.27;;;;;;;22.22;70.81;100479.06;;;;-51
2021/06/24 14:46:07;;;;;;;4.91;3.37;;;;;;;22.23;70.80;100489.03;;;;-54
2021/06/24 14:49:06;;;;;;;5.05;3.35;;;;;;;22.23;70.79;100488.73;;;;-59
2021/06/24 14:52:06;;;;;;;4.21;3.23;;;;;;;22.24;70.78;100491.97;;;;-59
2021/06/24 14:55:06;;;;;;;4.77;3.33;;;;;;;22.23;70.80;100490.52;;;;-57
2021/06/24 14:58:06;;;;;;;6.51;3.34;;;;;;;22.24;70.77;100493.86;;;;-58
2021/06/24 15:01:06;;;;;;;7.35;3.22;;;;;;;22.25;70.88;100497.70;;;;-58
2021/06/24 15:04:06;;;;;;;6.61;3.45;;;;;;;22.26;70.88;100500.86;;;;-58
2021/06/24 15:07:06;;;;;;;3.84;3.07;;;;;;;22.26;70.88;100499.80;;;;-57
2021/06/24 15:10:06;;;;;;;9.55;3.29;;;;;;;22.26;70.77;100492.45;;;;-50
2021/06/24 15:13:06;;;;;;;9.24;3.52;;;;;;;22.26;70.82;100486.09;;;;-60
2021/06/24 15:16:06;;;;;;;8.15;3.47;;;;;;;22.26;70.84;100481.34;;;;-52
2021/06/24 15:19:07;;;;;;;6.28;3.37;;;;;;;22.27;70.88;100478.50;;;;-50
2021/06/24 15:22:06;;;;;;;24.79;3.87;;;;;;;22.27;71.01;100470.92;;;;-61
2021/06/24 15:25:06;;;;;;;9.07;3.24;;;;;;;22.27;71.03;100466.66;;;;-49
2021/06/24 15:28:06;;;;;;;7.08;3.36;;;;;;;22.28;70.98;100464.36;;;;-59
2021/06/24 15:31:07;;;;;;;5.51;3.11;;;;;;;22.29;71.01;100461.68;;;;-52
2021/06/24 15:34:06;;;;;;;6.32;3.29;;;;;;;22.30;70.92;100464.94;;;;-60
2021/06/24 15:37:06;;;;;;;9.98;3.47;;;;;;;22.30;70.99;100478.39;;;;-58
2021/06/24 15:40:06;;;;;;;8.22;3.27;;;;;;;22.31;70.91;100488.28;;;;-58
2021/06/24 15:43:06;;;;;;;6.23;3.37;;;;;;;22.32;70.89;100497.99;;;;-56
2021/06/24 15:46:06;;;;;;;8.10;3.20;;;;;;;22.32;70.87;100500.11;;;;-58
2021/06/24 15:49:06;;;;;;;6.43;2.91;;;;;;;22.32;70.84;100491.69;;;;-57
2021/06/24 15:52:06;;;;;;;5.69;3.30;;;;;;;22.33;70.53;100480.25;;;;-57
2021/06/24 15:55:06;;;;;;;4.39;2.91;;;;;;;22.32;70.62;100477.75;;;;-53
2021/06/24 15:58:06;;;;;;;6.37;3.03;;;;;;;22.30;70.70;100474.47;;;;-51
2021/06/24 16:01:06;;;;;;;5.36;3.02;;;;;;;22.31;70.76;100471.63;;;;-51
2021/06/24 16:04:06;;;;;;;9.86;3.15;;;;;;;22.32;70.76;100468.17;;;;-52
2021/06/24 16:07:06;;;;;;;4.05;3.05;;;;;;;22.32;70.75;100466.38;;;;-57
2021/06/24 16:10:06;;;;;;;6.73;2.91;;;;;;;22.33;70.73;100461.07;;;;-57
2021/06/24 16:13:06;;;;;;;6.59;2.95;;;;;;;22.33;70.69;100449.17;;;;-54
2021/06/24 16:16:06;;;;;;;5.30;2.84;;;;;;;22.33;70.74;100451.95;;;;-52
2021/06/24 16:19:06;;;;;;;3.46;2.81;;;;;;;22.34;70.67;100456.58;;;;-58
2021/06/24 16:22:06;;;;;;;10.46;2.83;;;;;;;22.34;70.80;100459.67;;;;-52
2021/06/24 16:25:06;;;;;;;6.77;2.91;;;;;;;22.33;70.75;100450.48;;;;-56
2021/06/24 16:28:06;;;;;;;6.41;2.90;;;;;;;22.33;70.75;100440.57;;;;-51
2021/06/24 16:31:06;;;;;;;6.05;3.00;;;;;;;22.33;70.82;100430.53;;;;-50
2021/06/24 16:34:06;;;;;;;4.83;2.93;;;;;;;22.32;70.81;100423.11;;;;-56
2021/06/24 16:37:05;;;;;;;4.72;2.95;;;;;;;22.33;70.82;100424.89;;;;-60
2021/06/24 16:40:06;;;;;;;3.01;2.65;;;;;;;22.32;70.58;100434.05;;;;-56
2021/06/24 16:43:07;;;;;;;6.15;3.13;;;;;;;22.33;70.66;100437.06;;;;-56
2021/06/24 16:46:06;;;;;;;5.47;2.81;;;;;;;22.33;70.70;100433.47;;;;-60
2021/06/24 16:49:06;;;;;;;3.77;2.87;;;;;;;22.34;70.74;100433.48;;;;-56